createdAt,value
2019-04-25T00:02:27.433Z,12.07
2019-04-25T00:04:59.164Z,12.03
2019-04-25T00:07:31.272Z,12.00
2019-04-25T00:10:06.683Z,12.07
2019-04-25T00:12:38.382Z,12.07
2019-04-25T00:15:11.073Z,12.08
2019-04-25T00:17:44.441Z,12.03
2019-04-25T00:20:16.110Z,11.97
2019-04-25T00:22:53.349Z,11.90
2019-04-25T00:25:29.554Z,11.81
2019-04-25T00:28:01.842Z,11.72
2019-04-25T00:30:33.632Z,11.67
2019-04-25T00:33:05.683Z,11.65
2019-04-25T00:35:37.165Z,11.66
2019-04-25T00:38:08.625Z,11.62
2019-04-25T00:40:40.078Z,11.57
2019-04-25T00:43:13.247Z,11.54
2019-04-25T00:45:45.727Z,11.50
2019-04-25T00:48:17.494Z,11.47
2019-04-25T00:50:48.971Z,11.42
2019-04-25T00:53:21.233Z,11.35
2019-04-25T00:55:53.894Z,11.32
2019-04-25T00:58:27.199Z,11.27
2019-04-25T01:01:01.954Z,11.25
2019-04-25T01:03:35.438Z,11.15
2019-04-25T01:06:07.067Z,11.16
2019-04-25T01:08:38.747Z,11.13
2019-04-25T01:11:11.506Z,11.15
2019-04-25T01:13:43.073Z,11.16
2019-04-25T01:16:14.812Z,11.16
2019-04-25T01:18:46.805Z,11.18
2019-04-25T01:21:18.375Z,11.17
2019-04-25T01:23:49.998Z,11.15
2019-04-25T01:26:21.660Z,11.12
2019-04-25T01:28:54.067Z,11.12
2019-04-25T01:31:28.359Z,11.07
2019-04-25T01:33:59.991Z,11.02
2019-04-25T01:36:35.888Z,10.95
2019-04-25T01:39:14.297Z,10.92
2019-04-25T01:41:47.686Z,10.91
2019-04-25T01:44:20.807Z,10.86
2019-04-25T01:46:54.189Z,10.89
2019-04-25T01:49:25.965Z,10.92
2019-04-25T01:51:58.616Z,10.90
2019-04-25T01:54:31.019Z,10.86
2019-04-25T01:57:04.362Z,10.84
2019-04-25T01:59:36.145Z,10.84
2019-04-25T02:02:09.363Z,10.84
2019-04-25T02:04:40.937Z,10.83
2019-04-25T02:07:13.486Z,10.84
2019-04-25T02:09:45.242Z,10.82
2019-04-25T02:12:27.874Z,10.78
2019-04-25T02:14:59.918Z,10.71
2019-04-25T02:17:31.545Z,10.61
2019-04-25T02:20:05.214Z,10.56
2019-04-25T02:22:36.709Z,10.55
2019-04-25T02:25:08.439Z,10.52
2019-04-25T02:27:39.974Z,10.43
2019-04-25T02:30:15.205Z,10.44
2019-04-25T02:32:46.202Z,10.43
2019-04-25T02:35:18.854Z,10.42
2019-04-25T02:37:50.407Z,10.43
2019-04-25T02:40:23.800Z,10.47
2019-04-25T02:42:58.145Z,10.46
2019-04-25T02:45:38.819Z,10.48
2019-04-25T02:48:24.334Z,10.46
2019-04-25T02:51:01.651Z,10.53
2019-04-25T02:53:44.632Z,10.57
2019-04-25T02:56:30.551Z,10.70
2019-04-25T02:58:49.954Z,10.80
2019-04-25T03:01:25.680Z,10.89
2019-04-25T03:03:55.062Z,10.96
2019-04-25T03:06:26.633Z,11.06
2019-04-25T03:09:00.091Z,11.17
2019-04-25T03:11:31.698Z,11.29
2019-04-25T03:14:06.621Z,11.41
2019-04-25T03:16:36.435Z,11.54
2019-04-25T03:19:09.620Z,11.69
2019-04-25T03:21:45.781Z,11.80
2019-04-25T03:24:17.311Z,11.92
2019-04-25T03:26:48.968Z,12.06
2019-04-25T03:29:20.428Z,12.19
2019-04-25T03:31:52.011Z,12.31
2019-04-25T03:34:25.306Z,12.52
2019-04-25T03:36:56.763Z,12.68
2019-04-25T03:39:28.234Z,12.91
2019-04-25T03:41:59.743Z,13.14
2019-04-25T03:44:31.333Z,13.39
2019-04-25T03:47:05.290Z,13.61
2019-04-25T03:49:36.183Z,13.86
2019-04-25T03:52:07.978Z,14.08
2019-04-25T03:54:39.471Z,14.43
2019-04-25T03:57:10.946Z,14.71
2019-04-25T03:59:43.672Z,14.98
2019-04-25T04:02:15.582Z,15.29
2019-04-25T04:04:47.048Z,15.44
2019-04-25T04:07:18.590Z,15.74
2019-04-25T04:09:50.137Z,15.93
2019-04-25T04:12:21.619Z,16.09
2019-04-25T04:14:53.783Z,16.32
2019-04-25T04:17:33.911Z,16.57
2019-04-25T04:20:09.399Z,16.66
2019-04-25T04:22:41.769Z,17.04
2019-04-25T04:25:14.755Z,17.36
2019-04-25T04:27:46.228Z,17.66
2019-04-25T04:30:31.436Z,18.06
2019-04-25T04:33:03.637Z,18.47
2019-04-25T04:35:36.560Z,18.74
2019-04-25T04:38:08.314Z,19.08
2019-04-25T04:40:40.087Z,19.41
2019-04-25T04:43:12.077Z,19.63
2019-04-25T04:45:45.630Z,19.79
2019-04-25T04:48:17.297Z,19.94
2019-04-25T04:50:49.163Z,20.11
2019-04-25T04:53:21.025Z,20.48
2019-04-25T04:55:54.309Z,20.51
2019-04-25T04:58:25.896Z,20.68
2019-04-25T05:00:57.947Z,20.98
2019-04-25T05:03:37.311Z,21.16
2019-04-25T05:06:10.997Z,21.25
2019-04-25T05:08:47.444Z,21.32
2019-04-25T05:11:19.903Z,21.49
2019-04-25T05:13:51.581Z,21.84
2019-04-25T05:16:23.871Z,22.04
2019-04-25T05:18:55.512Z,22.22
2019-04-25T05:21:27.474Z,22.45
2019-04-25T05:23:59.342Z,22.50
2019-04-25T05:26:31.094Z,22.66
2019-04-25T05:29:03.668Z,22.78
2019-04-25T05:31:39.640Z,22.96
2019-04-25T05:34:11.189Z,23.08
2019-04-25T05:36:43.852Z,23.35
2019-04-25T05:39:17.780Z,23.41
2019-04-25T05:41:59.670Z,23.37
2019-04-25T05:44:31.553Z,23.26
2019-04-25T05:47:04.145Z,23.16
2019-04-25T05:49:36.080Z,23.28
2019-04-25T05:52:08.048Z,23.27
2019-04-25T05:54:39.846Z,23.49
2019-04-25T05:57:11.563Z,23.48
2019-04-25T05:59:43.720Z,23.45
2019-04-25T06:02:15.488Z,23.48
2019-04-25T06:04:47.151Z,23.58
2019-04-25T06:07:19.403Z,23.68
2019-04-25T06:09:54.295Z,23.55
2019-04-25T06:12:31.435Z,23.58
2019-04-25T06:15:04.630Z,23.70
2019-04-25T06:17:38.947Z,23.75
2019-04-25T06:20:13.433Z,23.82
2019-04-25T06:22:56.083Z,23.93
2019-04-25T06:25:32.990Z,23.91
2019-04-25T06:28:13.736Z,23.90
2019-04-25T06:30:45.482Z,24.18
2019-04-25T06:33:17.317Z,24.42
2019-04-25T06:35:49.202Z,24.34
2019-04-25T06:38:21.349Z,24.32
2019-04-25T06:40:53.587Z,24.59
2019-04-25T06:43:25.899Z,24.48
2019-04-25T06:46:15.287Z,24.85
2019-04-25T06:48:48.790Z,24.94
2019-04-25T06:51:22.426Z,25.42
2019-04-25T06:53:54.140Z,25.39
2019-04-25T06:56:26.130Z,25.23
2019-04-25T06:58:57.868Z,25.07
2019-04-25T07:01:30.422Z,24.71
2019-04-25T07:04:02.043Z,24.85
2019-04-25T07:06:34.984Z,24.88
2019-04-25T07:09:11.062Z,24.94
2019-04-25T07:11:43.999Z,25.08
2019-04-25T07:14:15.935Z,25.36
2019-04-25T07:16:47.867Z,25.20
2019-04-25T07:19:19.728Z,25.45
2019-04-25T07:21:51.646Z,25.68
2019-04-25T07:24:24.847Z,25.92
2019-04-25T07:26:58.480Z,25.77
2019-04-25T07:29:38.325Z,25.62
2019-04-25T07:32:20.729Z,25.79
2019-04-25T07:34:53.622Z,26.02
2019-04-25T07:37:29.839Z,26.19
2019-04-25T07:40:01.646Z,26.28
2019-04-25T07:42:35.442Z,26.22
2019-04-25T07:45:14.075Z,26.25
2019-04-25T07:47:45.961Z,26.49
2019-04-25T07:50:17.994Z,26.51
2019-04-25T07:52:49.549Z,26.63
2019-04-25T07:55:21.312Z,26.61
2019-04-25T07:57:53.418Z,26.40
2019-04-25T08:00:27.282Z,26.64
2019-04-25T08:02:58.843Z,26.61
2019-04-25T08:05:31.390Z,26.77
2019-04-25T08:08:03.556Z,26.93
2019-04-25T08:11:01.140Z,26.87
2019-04-25T08:13:36.199Z,26.82
2019-04-25T08:16:09.810Z,27.03
2019-04-25T08:18:43.367Z,27.20
2019-04-25T08:21:15.395Z,27.36
2019-04-25T08:23:47.687Z,27.35
2019-04-25T08:26:19.272Z,27.46
2019-04-25T08:28:55.705Z,27.51
2019-04-25T08:31:24.119Z,27.53
2019-04-25T08:33:55.857Z,27.52
2019-04-25T08:36:27.754Z,27.59
2019-04-25T08:38:59.603Z,27.65
2019-04-25T08:41:32.406Z,27.66
2019-04-25T08:44:04.871Z,27.97
2019-04-25T08:46:38.414Z,28.30
2019-04-25T08:49:27.624Z,28.34
2019-04-25T08:52:00.204Z,28.32
2019-04-25T08:54:49.666Z,28.62
2019-04-25T08:57:25.741Z,28.34
2019-04-25T09:00:01.927Z,28.48
2019-04-25T09:02:38.527Z,28.57
2019-04-25T09:05:24.879Z,28.57
2019-04-25T09:07:56.508Z,28.65
2019-04-25T09:10:28.297Z,28.68
2019-04-25T09:13:00.435Z,28.76
2019-04-25T09:15:33.729Z,28.52
2019-04-25T09:18:05.697Z,28.58
2019-04-25T09:20:39.606Z,28.80
2019-04-25T09:23:11.287Z,28.88
2019-04-25T09:25:45.949Z,28.87
2019-04-25T09:28:17.008Z,28.88
2019-04-25T09:30:48.545Z,28.90
2019-04-25T09:33:20.017Z,28.86
2019-04-25T09:35:53.987Z,28.96
2019-04-25T09:38:25.614Z,28.92
2019-04-25T09:40:57.388Z,28.92
2019-04-25T09:43:29.347Z,28.86
2019-04-25T09:46:13.287Z,28.95
2019-04-25T09:48:58.951Z,29.08
2019-04-25T09:51:33.577Z,29.12
2019-04-25T09:54:23.927Z,29.16
2019-04-25T09:56:57.242Z,29.25
2019-04-25T09:59:30.131Z,29.21
2019-04-25T10:02:01.905Z,29.27
2019-04-25T10:04:34.672Z,29.32
2019-04-25T10:07:06.649Z,29.27
2019-04-25T10:09:38.312Z,29.22
2019-04-25T10:12:10.069Z,29.36
2019-04-25T10:14:59.117Z,29.27
2019-04-25T10:17:31.089Z,29.24
2019-04-25T10:20:03.057Z,29.08
2019-04-25T10:22:34.987Z,29.13
2019-04-25T10:25:07.103Z,29.31
2019-04-25T10:27:39.272Z,29.47
2019-04-25T10:30:17.608Z,29.25
2019-04-25T10:32:45.388Z,29.26
2019-04-25T10:35:18.327Z,29.27
2019-04-25T10:37:50.423Z,29.36
2019-04-25T10:40:24.709Z,29.48
2019-04-25T10:42:55.889Z,29.50
2019-04-25T10:45:27.965Z,29.31
2019-04-25T10:47:59.688Z,29.49
2019-04-25T10:50:31.655Z,29.39
2019-04-25T10:53:04.043Z,29.59
2019-04-25T10:55:35.848Z,29.41
2019-04-25T10:58:07.678Z,29.55
2019-04-25T11:00:46.247Z,29.62
2019-04-25T11:03:35.725Z,29.62
2019-04-25T11:06:07.792Z,29.70
2019-04-25T11:08:40.414Z,29.62
2019-04-25T11:11:13.852Z,29.83
2019-04-25T11:13:46.643Z,29.82
2019-04-25T11:16:18.413Z,29.71
2019-04-25T11:18:50.174Z,29.74
2019-04-25T11:21:21.732Z,29.83
2019-04-25T11:23:55.539Z,29.85
2019-04-25T11:26:27.403Z,29.76
2019-04-25T11:28:58.951Z,29.78
2019-04-25T11:31:33.735Z,29.77
2019-04-25T11:34:05.649Z,29.85
2019-04-25T11:36:37.405Z,29.93
2019-04-25T11:39:29.853Z,29.93
2019-04-25T11:42:02.238Z,29.96
2019-04-25T11:44:34.993Z,29.95
2019-04-25T11:47:08.614Z,29.89
2019-04-25T11:49:40.356Z,29.74
2019-04-25T11:52:21.402Z,29.95
2019-04-25T11:54:46.735Z,30.10
2019-04-25T11:57:18.709Z,30.12
2019-04-25T11:59:50.652Z,30.12
2019-04-25T12:02:23.962Z,30.14
2019-04-25T12:04:55.552Z,30.16
2019-04-25T12:07:27.111Z,30.09
2019-04-25T12:09:58.753Z,30.17
2019-04-25T12:12:30.404Z,30.14
2019-04-25T12:15:01.867Z,30.09
2019-04-25T12:17:35.380Z,30.24
2019-04-25T12:20:07.916Z,30.11
2019-04-25T12:22:39.547Z,30.06
2019-04-25T12:25:11.112Z,30.11
2019-04-25T12:27:45.474Z,30.07
2019-04-25T12:30:16.458Z,30.06
2019-04-25T12:32:48.043Z,30.17
2019-04-25T12:35:19.712Z,30.04
2019-04-25T12:37:52.178Z,30.02
2019-04-25T12:40:24.583Z,30.11
2019-04-25T12:42:56.541Z,30.22
2019-04-25T12:45:34.284Z,30.11
2019-04-25T12:48:07.977Z,30.12
2019-04-25T12:50:39.584Z,30.25
2019-04-25T12:53:11.040Z,30.39
2019-04-25T12:55:44.180Z,30.30
2019-04-25T12:58:15.886Z,30.28
2019-04-25T13:00:52.432Z,30.14
2019-04-25T13:03:21.049Z,30.37
2019-04-25T13:05:52.663Z,30.40
2019-04-25T13:08:25.282Z,30.40
2019-04-25T13:11:07.572Z,30.14
2019-04-25T13:13:29.958Z,30.12
2019-04-25T13:16:01.499Z,30.30
2019-04-25T13:18:33.067Z,30.06
2019-04-25T13:21:05.521Z,30.04
2019-04-25T13:23:37.214Z,30.12
2019-04-25T13:26:08.789Z,30.21
2019-04-25T13:28:47.725Z,30.15
2019-04-25T13:31:23.830Z,30.17
2019-04-25T13:34:04.662Z,30.12
2019-04-25T13:36:36.327Z,30.15
2019-04-25T13:39:10.072Z,30.21
2019-04-25T13:41:43.020Z,30.19
2019-04-25T13:44:15.465Z,30.14
2019-04-25T13:46:47.810Z,29.97
2019-04-25T13:49:19.482Z,30.05
2019-04-25T13:51:51.818Z,30.12
2019-04-25T13:54:24.048Z,30.06
2019-04-25T13:56:56.582Z,30.05
2019-04-25T13:59:28.372Z,29.88
2019-04-25T14:02:01.493Z,29.88
2019-04-25T14:04:35.593Z,29.89
2019-04-25T14:07:07.215Z,29.85
2019-04-25T14:09:39.020Z,29.80
2019-04-25T14:12:10.803Z,29.83
2019-04-25T14:14:43.805Z,29.67
2019-04-25T14:17:20.427Z,29.72
2019-04-25T14:20:04.180Z,29.80
2019-04-25T14:22:36.073Z,29.94
2019-04-25T14:25:08.628Z,30.16
2019-04-25T14:27:40.237Z,30.33
2019-04-25T14:30:13.555Z,30.31
2019-04-25T14:32:45.235Z,30.34
2019-04-25T14:35:16.720Z,30.28
2019-04-25T14:37:48.194Z,30.04
2019-04-25T14:40:19.761Z,29.97
2019-04-25T14:42:51.485Z,29.91
2019-04-25T14:45:23.080Z,29.87
2019-04-25T14:47:54.571Z,29.84
2019-04-25T14:50:26.997Z,29.91
2019-04-25T14:52:58.962Z,30.13
2019-04-25T14:55:41.306Z,30.30
2019-04-25T14:58:17.474Z,30.18
2019-04-25T15:00:50.590Z,30.25
2019-04-25T15:03:23.091Z,30.20
2019-04-25T15:05:55.851Z,30.20
2019-04-25T15:08:27.397Z,30.02
2019-04-25T15:10:59.016Z,29.70
2019-04-25T15:13:30.506Z,29.61
2019-04-25T15:16:04.756Z,29.43
2019-04-25T15:18:46.014Z,29.19
2019-04-25T15:21:08.611Z,29.11
2019-04-25T15:23:40.068Z,28.79
2019-04-25T15:26:11.589Z,28.69
2019-04-25T15:28:43.634Z,28.53
2019-04-25T15:31:16.289Z,28.34
2019-04-25T15:33:47.998Z,28.20
2019-04-25T15:36:27.195Z,28.04
2019-04-25T15:39:03.100Z,27.88
2019-04-25T15:41:39.529Z,27.80
2019-04-25T15:44:29.141Z,27.48
2019-04-25T15:47:02.350Z,27.31
2019-04-25T15:49:34.570Z,27.12
2019-04-25T15:52:07.717Z,27.01
2019-04-25T15:54:39.464Z,27.10
2019-04-25T15:57:11.263Z,26.97
2019-04-25T15:59:42.831Z,26.66
2019-04-25T16:02:14.638Z,26.55
2019-04-25T16:04:46.367Z,26.42
2019-04-25T16:07:17.950Z,26.24
2019-04-25T16:09:49.647Z,25.81
2019-04-25T16:12:21.438Z,25.52
2019-04-25T16:14:53.023Z,25.36
2019-04-25T16:17:27.126Z,24.98
2019-04-25T16:19:58.960Z,24.64
2019-04-25T16:22:30.663Z,24.38
2019-04-25T16:25:02.240Z,24.23
2019-04-25T16:27:33.851Z,23.99
2019-04-25T16:30:07.729Z,23.75
2019-04-25T16:32:39.328Z,23.56
2019-04-25T16:35:11.005Z,23.41
2019-04-25T16:37:42.696Z,23.20
2019-04-25T16:40:14.431Z,22.94
2019-04-25T16:42:46.889Z,22.79
2019-04-25T16:45:19.207Z,22.67
2019-04-25T16:47:50.987Z,22.55
2019-04-25T16:50:25.767Z,22.39
2019-04-25T16:53:40.085Z,22.61
2019-04-25T16:56:11.879Z,23.08
2019-04-25T16:58:43.541Z,22.54
2019-04-25T17:01:15.507Z,22.28
2019-04-25T17:03:47.376Z,21.89
2019-04-25T17:06:19.465Z,22.09
2019-04-25T17:08:50.990Z,21.89
2019-04-25T17:11:22.850Z,21.83
2019-04-25T17:13:58.709Z,21.67
2019-04-25T17:16:34.862Z,21.45
2019-04-25T17:19:08.126Z,21.31
2019-04-25T17:21:41.048Z,21.22
2019-04-25T17:24:13.010Z,20.96
2019-04-25T17:26:44.878Z,20.97
2019-04-25T17:29:18.376Z,20.93
2019-04-25T17:31:57.918Z,20.75
2019-04-25T17:34:46.965Z,20.96
2019-04-25T17:37:20.565Z,21.08
2019-04-25T17:39:56.932Z,20.74
2019-04-25T17:42:28.601Z,20.16
2019-04-25T17:45:00.461Z,20.53
2019-04-25T17:47:33.121Z,20.52
2019-04-25T17:50:07.143Z,20.58
2019-04-25T17:52:38.700Z,20.15
2019-04-25T17:55:10.769Z,20.00
2019-04-25T17:57:42.339Z,19.91
2019-04-25T18:02:58.691Z,19.68
2019-04-25T18:05:24.356Z,19.21
2019-04-25T18:07:56.051Z,19.28
2019-04-25T18:10:28.617Z,19.41
2019-04-25T18:13:00.467Z,19.50
2019-04-25T18:15:34.062Z,19.31
2019-04-25T18:18:07.354Z,19.30
2019-04-25T18:20:41.022Z,19.08
2019-04-25T18:23:14.463Z,18.88
2019-04-25T18:26:04.234Z,18.54
2019-04-25T18:28:43.675Z,18.41
2019-04-25T18:31:15.731Z,18.55
2019-04-25T18:33:49.538Z,18.83
2019-04-25T18:36:39.205Z,18.74
2019-04-25T18:39:18.746Z,18.59
2019-04-25T18:42:04.112Z,18.86
2019-04-25T18:44:36.707Z,18.73
2019-04-25T18:47:08.348Z,18.71
2019-04-25T18:49:48.512Z,18.30
2019-04-25T18:52:38.639Z,18.45
2019-04-25T18:55:13.410Z,18.14
2019-04-25T18:58:01.953Z,18.43
2019-04-25T19:00:49.777Z,18.28
2019-04-25T19:03:52.850Z,18.38
2019-04-25T19:06:52.782Z,18.47
2019-04-25T19:09:20.554Z,18.31
2019-04-25T19:12:00.305Z,18.19
2019-04-25T19:14:35.098Z,18.16
2019-04-25T19:17:11.569Z,18.11
2019-04-25T19:19:45.620Z,18.07
2019-04-25T19:29:52.483Z,14.47
2019-04-25T19:32:23.899Z,17.06
2019-04-25T19:35:09.073Z,17.30
2019-04-25T19:37:41.845Z,17.06
2019-04-25T19:40:37.453Z,17.29
2019-04-25T19:43:16.711Z,17.32
2019-04-25T19:46:06.735Z,17.39
2019-04-25T19:48:41.319Z,17.70
2019-04-25T19:51:14.426Z,17.55
2019-04-25T19:53:47.541Z,17.33
2019-04-25T19:56:19.207Z,17.47
2019-04-25T19:58:52.847Z,17.89
2019-04-25T20:01:24.845Z,17.59
2019-04-25T20:04:17.027Z,17.81
2019-04-25T20:07:06.699Z,17.58
2019-04-25T20:09:53.158Z,17.31
2019-04-25T20:12:30.742Z,17.03
2019-04-25T20:15:03.801Z,16.97
2019-04-25T20:17:39.723Z,17.15
2019-04-25T20:20:29.768Z,17.25
2019-04-25T20:23:02.812Z,17.12
2019-04-25T20:25:36.310Z,17.03
2019-04-25T20:28:27.339Z,17.04
2019-04-25T20:30:58.886Z,16.98
2019-04-25T20:33:32.274Z,16.39
2019-04-25T20:36:17.011Z,16.53
2019-04-25T20:38:40.641Z,16.67
2019-04-25T20:41:13.153Z,16.39
2019-04-25T20:43:47.543Z,16.43
2019-04-25T20:46:19.518Z,16.39
2019-04-25T20:48:52.316Z,16.54
2019-04-25T20:51:24.376Z,16.18
2019-04-25T20:53:57.084Z,16.24
2019-04-25T20:56:28.740Z,16.68
2019-04-25T20:59:00.250Z,16.86
2019-04-25T21:01:32.597Z,16.94
2019-04-25T21:04:12.985Z,16.67
2019-04-25T21:06:43.414Z,16.19
2019-04-25T21:09:17.621Z,16.10
2019-04-25T21:11:51.283Z,16.39
2019-04-25T21:14:26.441Z,16.36
2019-04-25T21:17:04.221Z,16.28
2019-04-25T21:19:38.124Z,16.25
2019-04-25T21:22:11.048Z,16.16
2019-04-25T21:24:42.956Z,16.02
2019-04-25T21:27:16.599Z,15.88
2019-04-25T21:29:49.709Z,15.90
2019-04-25T21:32:22.778Z,16.17
2019-04-25T21:34:57.321Z,16.32
2019-04-25T21:37:28.838Z,16.39
2019-04-25T21:40:07.840Z,16.30
2019-04-25T21:42:41.384Z,16.22
2019-04-25T21:45:14.099Z,15.97
2019-04-25T21:47:45.670Z,15.86
2019-04-25T21:50:22.024Z,16.09
2019-04-25T21:52:55.392Z,15.34
2019-04-25T21:55:27.271Z,15.40
2019-04-25T21:57:59.057Z,15.52
2019-04-25T22:00:51.543Z,15.43
2019-04-25T22:03:27.020Z,15.70
2019-04-25T22:05:58.989Z,15.69
2019-04-25T22:08:31.024Z,15.70
2019-04-25T22:11:03.392Z,15.47
2019-04-25T22:13:36.909Z,15.64
2019-04-25T22:16:13.240Z,15.64
2019-04-25T22:18:45.218Z,15.67
2019-04-25T22:21:17.150Z,15.54
2019-04-25T22:24:03.143Z,15.49
2019-04-25T22:26:25.336Z,15.37
2019-04-25T22:28:57.797Z,15.30
2019-04-25T22:31:31.457Z,15.51
2019-04-25T22:34:10.540Z,15.55
2019-04-25T22:36:42.709Z,15.28
2019-04-25T22:39:15.871Z,15.29
2019-04-25T22:41:50.165Z,15.25
2019-04-25T22:44:22.630Z,15.27
2019-04-25T22:47:14.024Z,15.30
2019-04-25T22:49:47.485Z,15.11
2019-04-25T22:52:20.313Z,15.28
2019-04-25T22:54:52.990Z,15.26
2019-04-25T22:57:25.058Z,15.28
2019-04-25T22:59:57.056Z,15.37
2019-04-25T23:02:43.472Z,15.28
2019-04-25T23:05:16.651Z,15.21
2019-04-25T23:07:49.339Z,15.35
2019-04-25T23:10:21.186Z,15.17
2019-04-25T23:12:52.807Z,15.13
2019-04-25T23:15:24.461Z,15.23
2019-04-25T23:17:57.876Z,15.23
2019-04-25T23:20:29.510Z,15.14
2019-04-25T23:23:04.172Z,15.15
2019-04-25T23:25:38.080Z,15.15
2019-04-25T23:28:14.400Z,15.00
2019-04-25T23:30:58.836Z,15.00
2019-04-25T23:33:30.452Z,14.89
2019-04-25T23:36:02.401Z,14.75
2019-04-25T23:38:33.982Z,14.91
2019-04-25T23:41:07.166Z,14.87
2019-04-25T23:43:39.830Z,14.88
2019-04-25T23:46:11.972Z,14.94
2019-04-25T23:48:44.452Z,14.90
2019-04-25T23:51:16.114Z,14.84
2019-04-25T23:53:47.878Z,14.93
2019-04-25T23:56:19.546Z,14.92
2019-04-25T23:58:51.403Z,14.81
